sensor_id;sensor_type;location;lat;lon;timestamp;temperature;humidity
18974;DHT22;9621;48.690;9.466;2023-06-22T00:00:13;18.00;99.90
18974;DHT22;9621;48.690;9.466;2023-06-22T00:02:40;17.90;99.90
18974;DHT22;9621;48.690;9.466;2023-06-22T00:05:07;17.90;99.90
18974;DHT22;9621;48.690;9.466;2023-06-22T00:07:35;17.80;99.90
18974;DHT22;9621;48.690;9.466;2023-06-22T00:10:03;17.80;99.90
18974;DHT22;9621;48.690;9.466;2023-06-22T00:12:29;17.80;99.90
18974;DHT22;9621;48.690;9.466;2023-06-22T00:14:57;17.80;99.90
18974;DHT22;9621;48.690;9.466;2023-06-22T00:17:24;17.80;99.90
18974;DHT22;9621;48.690;9.466;2023-06-22T00:19:51;17.80;99.90
18974;DHT22;9621;48.690;9.466;2023-06-22T00:22:20;17.80;99.90
18974;DHT22;9621;48.690;9.466;2023-06-22T00:24:55;17.80;99.90
18974;DHT22;9621;48.690;9.466;2023-06-22T00:27:22;17.90;99.90
18974;DHT22;9621;48.690;9.466;2023-06-22T00:29:48;17.90;99.90
18974;DHT22;9621;48.690;9.466;2023-06-22T00:32:15;17.90;99.90
18974;DHT22;9621;48.690;9.466;2023-06-22T00:34:44;17.90;99.90
18974;DHT22;9621;48.690;9.466;2023-06-22T00:37:11;17.90;99.90
18974;DHT22;9621;48.690;9.466;2023-06-22T00:39:37;17.80;99.90
18974;DHT22;9621;48.690;9.466;2023-06-22T00:42:06;17.90;99.90
18974;DHT22;9621;48.690;9.466;2023-06-22T00:44:34;17.80;99.90
18974;DHT22;9621;48.690;9.466;2023-06-22T00:47:01;17.80;99.90
18974;DHT22;9621;48.690;9.466;2023-06-22T00:49:28;17.80;99.90
18974;DHT22;9621;48.690;9.466;2023-06-22T00:51:57;17.80;99.90
18974;DHT22;9621;48.690;9.466;2023-06-22T00:54:24;17.80;99.90
18974;DHT22;9621;48.690;9.466;2023-06-22T00:56:51;17.80;99.90
18974;DHT22;9621;48.690;9.466;2023-06-22T00:59:22;17.70;99.90
18974;DHT22;9621;48.690;9.466;2023-06-22T01:01:50;17.70;99.90
18974;DHT22;9621;48.690;9.466;2023-06-22T01:04:16;17.60;99.90
18974;DHT22;9621;48.690;9.466;2023-06-22T01:06:47;17.60;99.90
18974;DHT22;9621;48.690;9.466;2023-06-22T01:09:22;17.50;99.90
18974;DHT22;9621;48.690;9.466;2023-06-22T01:11:54;17.40;99.90
18974;DHT22;9621;48.690;9.466;2023-06-22T01:14:28;17.40;99.90
18974;DHT22;9621;48.690;9.466;2023-06-22T01:16:57;17.40;99.90
18974;DHT22;9621;48.690;9.466;2023-06-22T01:19:35;17.30;99.90
18974;DHT22;9621;48.690;9.466;2023-06-22T01:22:05;17.30;99.90
18974;DHT22;9621;48.690;9.466;2023-06-22T01:24:45;17.30;99.90
18974;DHT22;9621;48.690;9.466;2023-06-22T01:27:25;17.20;99.90
18974;DHT22;9621;48.690;9.466;2023-06-22T01:29:57;17.10;99.90
18974;DHT22;9621;48.690;9.466;2023-06-22T01:32:27;17.10;99.90
18974;DHT22;9621;48.690;9.466;2023-06-22T01:34:54;17.10;99.90
18974;DHT22;9621;48.690;9.466;2023-06-22T01:37:22;17.10;99.90
18974;DHT22;9621;48.690;9.466;2023-06-22T01:39:49;17.00;99.90
18974;DHT22;9621;48.690;9.466;2023-06-22T01:42:17;17.00;99.90
18974;DHT22;9621;48.690;9.466;2023-06-22T01:44:44;17.00;99.90
18974;DHT22;9621;48.690;9.466;2023-06-22T01:47:12;16.90;99.90
18974;DHT22;9621;48.690;9.466;2023-06-22T01:49:40;16.90;99.90
18974;DHT22;9621;48.690;9.466;2023-06-22T01:52:07;16.90;99.90
18974;DHT22;9621;48.690;9.466;2023-06-22T01:54:34;16.90;99.90
18974;DHT22;9621;48.690;9.466;2023-06-22T01:57:01;16.90;99.90
18974;DHT22;9621;48.690;9.466;2023-06-22T01:59:34;16.80;99.90
18974;DHT22;9621;48.690;9.466;2023-06-22T02:02:05;16.80;99.90
18974;DHT22;9621;48.690;9.466;2023-06-22T02:04:37;16.80;99.90
18974;DHT22;9621;48.690;9.466;2023-06-22T02:07:12;16.70;99.90
18974;DHT22;9621;48.690;9.466;2023-06-22T02:09:43;16.60;99.90
18974;DHT22;9621;48.690;9.466;2023-06-22T02:12:12;16.60;99.90
18974;DHT22;9621;48.690;9.466;2023-06-22T02:14:39;16.50;99.90
18974;DHT22;9621;48.690;9.466;2023-06-22T02:17:08;16.50;99.90
18974;DHT22;9621;48.690;9.466;2023-06-22T02:19:37;16.40;99.90
18974;DHT22;9621;48.690;9.466;2023-06-22T02:22:05;16.40;99.90
18974;DHT22;9621;48.690;9.466;2023-06-22T02:24:32;16.40;99.90
18974;DHT22;9621;48.690;9.466;2023-06-22T02:26:59;16.40;99.90
18974;DHT22;9621;48.690;9.466;2023-06-22T02:29:27;16.30;99.90
18974;DHT22;9621;48.690;9.466;2023-06-22T02:31:54;16.40;99.90
18974;DHT22;9621;48.690;9.466;2023-06-22T02:34:22;16.30;99.90
18974;DHT22;9621;48.690;9.466;2023-06-22T02:36:50;16.30;99.90
18974;DHT22;9621;48.690;9.466;2023-06-22T02:39:19;16.30;99.90
18974;DHT22;9621;48.690;9.466;2023-06-22T02:41:47;16.30;99.90
18974;DHT22;9621;48.690;9.466;2023-06-22T02:44:15;16.30;99.90
18974;DHT22;9621;48.690;9.466;2023-06-22T02:46:42;16.20;99.90
18974;DHT22;9621;48.690;9.466;2023-06-22T02:49:09;16.10;99.90
18974;DHT22;9621;48.690;9.466;2023-06-22T02:51:38;16.10;99.90
18974;DHT22;9621;48.690;9.466;2023-06-22T02:54:07;16.10;99.90
18974;DHT22;9621;48.690;9.466;2023-06-22T02:56:34;16.00;99.90
18974;DHT22;9621;48.690;9.466;2023-06-22T02:59:02;16.00;99.90
18974;DHT22;9621;48.690;9.466;2023-06-22T03:01:29;16.00;99.90
18974;DHT22;9621;48.690;9.466;2023-06-22T03:04:03;15.90;99.90
18974;DHT22;9621;48.690;9.466;2023-06-22T03:06:30;15.90;99.90
18974;DHT22;9621;48.690;9.466;2023-06-22T03:08:59;15.80;99.90
18974;DHT22;9621;48.690;9.466;2023-06-22T03:11:28;15.70;99.90
18974;DHT22;9621;48.690;9.466;2023-06-22T03:13:55;15.70;99.90
18974;DHT22;9621;48.690;9.466;2023-06-22T03:16:22;15.70;99.90
18974;DHT22;9621;48.690;9.466;2023-06-22T03:18:49;15.60;99.90
18974;DHT22;9621;48.690;9.466;2023-06-22T03:21:16;15.60;99.90
18974;DHT22;9621;48.690;9.466;2023-06-22T03:23:42;15.50;99.90
18974;DHT22;9621;48.690;9.466;2023-06-22T03:26:09;15.50;99.90
18974;DHT22;9621;48.690;9.466;2023-06-22T03:28:38;15.50;99.90
18974;DHT22;9621;48.690;9.466;2023-06-22T03:31:05;15.50;99.90
18974;DHT22;9621;48.690;9.466;2023-06-22T03:33:33;15.50;99.90
18974;DHT22;9621;48.690;9.466;2023-06-22T03:36:00;15.50;99.90
18974;DHT22;9621;48.690;9.466;2023-06-22T03:38:27;15.50;99.90
18974;DHT22;9621;48.690;9.466;2023-06-22T03:40:54;15.50;99.90
18974;DHT22;9621;48.690;9.466;2023-06-22T03:43:21;15.60;99.90
18974;DHT22;9621;48.690;9.466;2023-06-22T03:45:49;15.60;99.90
18974;DHT22;9621;48.690;9.466;2023-06-22T03:48:16;15.60;99.90
18974;DHT22;9621;48.690;9.466;2023-06-22T03:50:43;15.60;99.90
18974;DHT22;9621;48.690;9.466;2023-06-22T03:53:10;15.70;99.90
18974;DHT22;9621;48.690;9.466;2023-06-22T03:55:42;15.70;99.90
18974;DHT22;9621;48.690;9.466;2023-06-22T03:58:14;15.70;99.90
18974;DHT22;9621;48.690;9.466;2023-06-22T04:00:41;15.80;99.90
18974;DHT22;9621;48.690;9.466;2023-06-22T04:03:09;15.90;99.90
18974;DHT22;9621;48.690;9.466;2023-06-22T04:05:38;16.00;99.90
18974;DHT22;9621;48.690;9.466;2023-06-22T04:08:05;16.00;99.90
18974;DHT22;9621;48.690;9.466;2023-06-22T04:10:32;16.20;99.90
18974;DHT22;9621;48.690;9.466;2023-06-22T04:12:59;16.30;99.90
18974;DHT22;9621;48.690;9.466;2023-06-22T04:15:26;16.40;99.90
18974;DHT22;9621;48.690;9.466;2023-06-22T04:17:54;16.50;99.90
18974;DHT22;9621;48.690;9.466;2023-06-22T04:20:23;16.70;99.90
18974;DHT22;9621;48.690;9.466;2023-06-22T04:22:51;16.80;99.90
18974;DHT22;9621;48.690;9.466;2023-06-22T04:25:18;17.10;99.90
18974;DHT22;9621;48.690;9.466;2023-06-22T04:27:45;17.20;99.90
18974;DHT22;9621;48.690;9.466;2023-06-22T04:30:12;17.40;99.90
18974;DHT22;9621;48.690;9.466;2023-06-22T04:32:40;17.60;99.90
18974;DHT22;9621;48.690;9.466;2023-06-22T04:35:08;17.80;99.90
18974;DHT22;9621;48.690;9.466;2023-06-22T04:37:36;18.00;99.90
18974;DHT22;9621;48.690;9.466;2023-06-22T04:40:04;18.10;99.90
18974;DHT22;9621;48.690;9.466;2023-06-22T04:42:31;18.40;99.90
18974;DHT22;9621;48.690;9.466;2023-06-22T04:44:58;18.60;99.90
18974;DHT22;9621;48.690;9.466;2023-06-22T04:47:25;18.80;99.90
18974;DHT22;9621;48.690;9.466;2023-06-22T04:49:52;18.90;99.90
18974;DHT22;9621;48.690;9.466;2023-06-22T04:52:19;19.10;99.90
18974;DHT22;9621;48.690;9.466;2023-06-22T04:54:47;19.30;99.90
18974;DHT22;9621;48.690;9.466;2023-06-22T04:57:16;19.40;99.90
18974;DHT22;9621;48.690;9.466;2023-06-22T04:59:42;19.60;99.90
18974;DHT22;9621;48.690;9.466;2023-06-22T05:02:10;19.80;99.90
18974;DHT22;9621;48.690;9.466;2023-06-22T05:04:38;20.00;99.90
18974;DHT22;9621;48.690;9.466;2023-06-22T05:07:05;20.30;99.90
18974;DHT22;9621;48.690;9.466;2023-06-22T05:09:32;20.40;99.90
18974;DHT22;9621;48.690;9.466;2023-06-22T05:12:02;20.60;99.90
18974;DHT22;9621;48.690;9.466;2023-06-22T05:14:30;20.80;99.90
18974;DHT22;9621;48.690;9.466;2023-06-22T05:16:57;20.90;99.90
18974;DHT22;9621;48.690;9.466;2023-06-22T05:19:25;21.10;99.90
18974;DHT22;9621;48.690;9.466;2023-06-22T05:21:56;21.30;99.90
18974;DHT22;9621;48.690;9.466;2023-06-22T05:24:23;21.50;99.90
18974;DHT22;9621;48.690;9.466;2023-06-22T05:26:50;21.70;99.90
18974;DHT22;9621;48.690;9.466;2023-06-22T05:29:18;21.90;99.90
18974;DHT22;9621;48.690;9.466;2023-06-22T05:31:46;22.00;99.90
18974;DHT22;9621;48.690;9.466;2023-06-22T05:34:13;22.30;99.90
18974;DHT22;9621;48.690;9.466;2023-06-22T05:36:39;22.30;99.90
18974;DHT22;9621;48.690;9.466;2023-06-22T05:39:13;22.40;99.90
18974;DHT22;9621;48.690;9.466;2023-06-22T05:41:40;22.50;99.90
18974;DHT22;9621;48.690;9.466;2023-06-22T05:44:08;22.60;99.90
18974;DHT22;9621;48.690;9.466;2023-06-22T05:46:36;22.90;99.90
18974;DHT22;9621;48.690;9.466;2023-06-22T05:49:03;23.00;99.90
18974;DHT22;9621;48.690;9.466;2023-06-22T05:51:30;23.30;99.90
18974;DHT22;9621;48.690;9.466;2023-06-22T05:53:57;23.50;99.90
18974;DHT22;9621;48.690;9.466;2023-06-22T05:56:24;23.70;99.90
18974;DHT22;9621;48.690;9.466;2023-06-22T05:58:50;23.90;99.90
18974;DHT22;9621;48.690;9.466;2023-06-22T06:01:19;24.10;99.90
18974;DHT22;9621;48.690;9.466;2023-06-22T06:03:48;24.30;99.90
18974;DHT22;9621;48.690;9.466;2023-06-22T06:06:15;24.50;99.90
18974;DHT22;9621;48.690;9.466;2023-06-22T06:08:42;24.70;99.90
18974;DHT22;9621;48.690;9.466;2023-06-22T06:11:09;24.90;99.90
18974;DHT22;9621;48.690;9.466;2023-06-22T06:13:36;25.00;99.90
18974;DHT22;9621;48.690;9.466;2023-06-22T06:16:03;25.20;99.90
18974;DHT22;9621;48.690;9.466;2023-06-22T06:18:30;25.40;99.90
18974;DHT22;9621;48.690;9.466;2023-06-22T06:20:58;25.70;99.90
18974;DHT22;9621;48.690;9.466;2023-06-22T06:23:25;25.80;99.90
18974;DHT22;9621;48.690;9.466;2023-06-22T06:25:52;26.00;99.90
18974;DHT22;9621;48.690;9.466;2023-06-22T06:28:18;26.20;99.90
18974;DHT22;9621;48.690;9.466;2023-06-22T06:30:45;26.30;99.90
18974;DHT22;9621;48.690;9.466;2023-06-22T06:33:13;26.40;99.90
18974;DHT22;9621;48.690;9.466;2023-06-22T06:35:40;26.50;99.90
18974;DHT22;9621;48.690;9.466;2023-06-22T06:38:08;26.60;99.90
18974;DHT22;9621;48.690;9.466;2023-06-22T06:40:35;26.80;99.90
18974;DHT22;9621;48.690;9.466;2023-06-22T06:43:02;26.90;99.80
18974;DHT22;9621;48.690;9.466;2023-06-22T06:45:29;27.10;99.60
18974;DHT22;9621;48.690;9.466;2023-06-22T06:47:58;27.30;99.10
18974;DHT22;9621;48.690;9.466;2023-06-22T06:50:25;27.40;98.90
18974;DHT22;9621;48.690;9.466;2023-06-22T06:52:52;27.50;98.50
18974;DHT22;9621;48.690;9.466;2023-06-22T06:55:20;27.70;98.00
18974;DHT22;9621;48.690;9.466;2023-06-22T06:57:50;27.90;97.80
18974;DHT22;9621;48.690;9.466;2023-06-22T07:00:19;28.20;97.50
18974;DHT22;9621;48.690;9.466;2023-06-22T07:02:46;28.50;96.70
18974;DHT22;9621;48.690;9.466;2023-06-22T07:05:14;28.70;95.80
18974;DHT22;9621;48.690;9.466;2023-06-22T07:07:41;28.90;95.40
18974;DHT22;9621;48.690;9.466;2023-06-22T07:10:08;29.10;94.70
18974;DHT22;9621;48.690;9.466;2023-06-22T07:12:36;29.30;93.80
18974;DHT22;9621;48.690;9.466;2023-06-22T07:15:05;29.40;92.50
18974;DHT22;9621;48.690;9.466;2023-06-22T07:17:33;29.50;92.50
18974;DHT22;9621;48.690;9.466;2023-06-22T07:20:00;29.60;92.20
18974;DHT22;9621;48.690;9.466;2023-06-22T07:22:29;29.70;91.80
18974;DHT22;9621;48.690;9.466;2023-06-22T07:24:56;29.80;91.10
18974;DHT22;9621;48.690;9.466;2023-06-22T07:27:23;29.90;90.80
18974;DHT22;9621;48.690;9.466;2023-06-22T07:29:51;30.10;90.20
18974;DHT22;9621;48.690;9.466;2023-06-22T07:32:18;30.20;88.30
18974;DHT22;9621;48.690;9.466;2023-06-22T07:34:45;30.30;87.30
18974;DHT22;9621;48.690;9.466;2023-06-22T07:37:12;30.40;86.30
18974;DHT22;9621;48.690;9.466;2023-06-22T07:39:39;30.40;84.20
18974;DHT22;9621;48.690;9.466;2023-06-22T07:42:08;30.40;84.00
18974;DHT22;9621;48.690;9.466;2023-06-22T07:44:35;30.50;83.60
18974;DHT22;9621;48.690;9.466;2023-06-22T07:47:03;30.70;84.70
18974;DHT22;9621;48.690;9.466;2023-06-22T07:49:30;30.90;80.40
18974;DHT22;9621;48.690;9.466;2023-06-22T07:51:57;31.10;79.60
18974;DHT22;9621;48.690;9.466;2023-06-22T07:54:24;31.20;77.50
18974;DHT22;9621;48.690;9.466;2023-06-22T07:56:51;31.20;75.80
18974;DHT22;9621;48.690;9.466;2023-06-22T07:59:18;31.20;76.70
18974;DHT22;9621;48.690;9.466;2023-06-22T08:01:45;31.20;74.30
18974;DHT22;9621;48.690;9.466;2023-06-22T08:04:16;31.30;75.50
18974;DHT22;9621;48.690;9.466;2023-06-22T08:06:42;31.40;72.90
18974;DHT22;9621;48.690;9.466;2023-06-22T08:09:10;31.50;72.50
18974;DHT22;9621;48.690;9.466;2023-06-22T08:11:37;31.60;70.70
18974;DHT22;9621;48.690;9.466;2023-06-22T08:14:04;31.60;70.80
18974;DHT22;9621;48.690;9.466;2023-06-22T08:16:32;31.60;71.20
18974;DHT22;9621;48.690;9.466;2023-06-22T08:18:58;31.60;71.40
18974;DHT22;9621;48.690;9.466;2023-06-22T08:21:27;31.80;70.30
18974;DHT22;9621;48.690;9.466;2023-06-22T08:23:54;31.90;68.20
18974;DHT22;9621;48.690;9.466;2023-06-22T08:26:20;32.00;71.20
18974;DHT22;9621;48.690;9.466;2023-06-22T08:28:49;32.10;68.80
18974;DHT22;9621;48.690;9.466;2023-06-22T08:31:15;32.20;68.60
18974;DHT22;9621;48.690;9.466;2023-06-22T08:33:43;32.30;68.10
18974;DHT22;9621;48.690;9.466;2023-06-22T08:36:11;32.40;67.00
18974;DHT22;9621;48.690;9.466;2023-06-22T08:38:40;32.40;67.00
18974;DHT22;9621;48.690;9.466;2023-06-22T08:41:07;32.60;67.00
18974;DHT22;9621;48.690;9.466;2023-06-22T08:43:34;32.70;68.10
18974;DHT22;9621;48.690;9.466;2023-06-22T08:46:01;32.90;66.60
18974;DHT22;9621;48.690;9.466;2023-06-22T08:48:28;33.00;66.20
18974;DHT22;9621;48.690;9.466;2023-06-22T08:50:55;33.30;65.30
18974;DHT22;9621;48.690;9.466;2023-06-22T08:53:22;33.50;64.90
18974;DHT22;9621;48.690;9.466;2023-06-22T08:55:50;33.80;65.30
18974;DHT22;9621;48.690;9.466;2023-06-22T08:58:17;34.10;64.30
18974;DHT22;9621;48.690;9.466;2023-06-22T09:00:45;34.50;63.80
18974;DHT22;9621;48.690;9.466;2023-06-22T09:03:13;34.90;62.70
18974;DHT22;9621;48.690;9.466;2023-06-22T09:05:40;35.30;61.10
18974;DHT22;9621;48.690;9.466;2023-06-22T09:08:07;35.60;60.60
18974;DHT22;9621;48.690;9.466;2023-06-22T09:10:34;35.80;59.50
18974;DHT22;9621;48.690;9.466;2023-06-22T09:13:03;36.00;57.70
18974;DHT22;9621;48.690;9.466;2023-06-22T09:15:29;36.20;57.10
18974;DHT22;9621;48.690;9.466;2023-06-22T09:17:56;36.30;57.00
18974;DHT22;9621;48.690;9.466;2023-06-22T09:20:23;36.30;56.10
18974;DHT22;9621;48.690;9.466;2023-06-22T09:22:51;36.30;56.40
18974;DHT22;9621;48.690;9.466;2023-06-22T09:25:18;36.30;56.70
18974;DHT22;9621;48.690;9.466;2023-06-22T09:27:46;36.40;55.40
18974;DHT22;9621;48.690;9.466;2023-06-22T09:30:15;36.50;55.70
18974;DHT22;9621;48.690;9.466;2023-06-22T09:32:41;36.40;53.80
18974;DHT22;9621;48.690;9.466;2023-06-22T09:35:09;36.40;53.20
18974;DHT22;9621;48.690;9.466;2023-06-22T09:37:38;36.40;53.60
18974;DHT22;9621;48.690;9.466;2023-06-22T09:40:06;36.30;53.90
18974;DHT22;9621;48.690;9.466;2023-06-22T09:42:36;36.30;54.60
18974;DHT22;9621;48.690;9.466;2023-06-22T09:45:04;36.40;54.50
18974;DHT22;9621;48.690;9.466;2023-06-22T09:47:33;36.50;54.60
18974;DHT22;9621;48.690;9.466;2023-06-22T09:50:00;36.50;54.40
18974;DHT22;9621;48.690;9.466;2023-06-22T09:52:27;36.50;54.20
18974;DHT22;9621;48.690;9.466;2023-06-22T09:54:54;36.60;55.10
18974;DHT22;9621;48.690;9.466;2023-06-22T09:57:21;36.80;55.40
18974;DHT22;9621;48.690;9.466;2023-06-22T09:59:48;37.00;54.00
18974;DHT22;9621;48.690;9.466;2023-06-22T10:02:16;37.30;54.40
18974;DHT22;9621;48.690;9.466;2023-06-22T10:04:46;37.50;52.80
18974;DHT22;9621;48.690;9.466;2023-06-22T10:07:12;37.50;53.20
18974;DHT22;9621;48.690;9.466;2023-06-22T10:09:39;37.70;52.70
18974;DHT22;9621;48.690;9.466;2023-06-22T10:12:07;37.80;53.00
18974;DHT22;9621;48.690;9.466;2023-06-22T10:14:34;37.80;52.90
18974;DHT22;9621;48.690;9.466;2023-06-22T10:17:02;37.80;52.10
18974;DHT22;9621;48.690;9.466;2023-06-22T10:19:29;37.80;53.00
18974;DHT22;9621;48.690;9.466;2023-06-22T10:21:58;37.80;51.80
18974;DHT22;9621;48.690;9.466;2023-06-22T10:24:24;37.60;50.80
18974;DHT22;9621;48.690;9.466;2023-06-22T10:26:52;37.30;52.00
18974;DHT22;9621;48.690;9.466;2023-06-22T10:29:19;37.00;52.60
18974;DHT22;9621;48.690;9.466;2023-06-22T10:31:46;36.70;52.40
18974;DHT22;9621;48.690;9.466;2023-06-22T10:34:13;36.60;52.60
18974;DHT22;9621;48.690;9.466;2023-06-22T10:36:40;36.50;52.10
18974;DHT22;9621;48.690;9.466;2023-06-22T10:39:08;36.30;53.00
18974;DHT22;9621;48.690;9.466;2023-06-22T10:41:35;36.30;53.20
18974;DHT22;9621;48.690;9.466;2023-06-22T10:44:02;36.50;53.00
18974;DHT22;9621;48.690;9.466;2023-06-22T10:46:29;36.70;52.80
18974;DHT22;9621;48.690;9.466;2023-06-22T10:48:57;37.00;53.50
18974;DHT22;9621;48.690;9.466;2023-06-22T10:51:24;37.40;52.00
18974;DHT22;9621;48.690;9.466;2023-06-22T10:53:51;37.70;51.90
18974;DHT22;9621;48.690;9.466;2023-06-22T10:56:19;37.90;50.90
18974;DHT22;9621;48.690;9.466;2023-06-22T10:58:46;37.90;50.30
18974;DHT22;9621;48.690;9.466;2023-06-22T11:01:13;37.90;51.10
18974;DHT22;9621;48.690;9.466;2023-06-22T11:03:40;38.00;49.40
18974;DHT22;9621;48.690;9.466;2023-06-22T11:06:07;38.00;49.30
18974;DHT22;9621;48.690;9.466;2023-06-22T11:08:34;38.10;48.60
18974;DHT22;9621;48.690;9.466;2023-06-22T11:11:01;38.10;48.60
18974;DHT22;9621;48.690;9.466;2023-06-22T11:13:29;38.10;48.40
18974;DHT22;9621;48.690;9.466;2023-06-22T11:15:56;37.90;47.70
18974;DHT22;9621;48.690;9.466;2023-06-22T11:18:23;37.80;48.80
18974;DHT22;9621;48.690;9.466;2023-06-22T11:20:50;37.70;48.20
18974;DHT22;9621;48.690;9.466;2023-06-22T11:23:16;37.50;48.90
18974;DHT22;9621;48.690;9.466;2023-06-22T11:25:44;37.30;48.10
18974;DHT22;9621;48.690;9.466;2023-06-22T11:28:12;37.10;48.10
18974;DHT22;9621;48.690;9.466;2023-06-22T11:30:40;37.00;50.50
18974;DHT22;9621;48.690;9.466;2023-06-22T11:33:07;37.10;49.10
18974;DHT22;9621;48.690;9.466;2023-06-22T11:35:33;37.00;48.00
18974;DHT22;9621;48.690;9.466;2023-06-22T11:38:00;36.90;48.00
18974;DHT22;9621;48.690;9.466;2023-06-22T11:40:29;36.70;48.40
18974;DHT22;9621;48.690;9.466;2023-06-22T11:42:55;36.60;49.00
18974;DHT22;9621;48.690;9.466;2023-06-22T11:45:23;36.50;49.00
18974;DHT22;9621;48.690;9.466;2023-06-22T11:47:51;36.50;49.60
18974;DHT22;9621;48.690;9.466;2023-06-22T11:50:18;36.40;49.70
18974;DHT22;9621;48.690;9.466;2023-06-22T11:52:45;36.40;49.20
18974;DHT22;9621;48.690;9.466;2023-06-22T11:55:12;36.30;48.70
18974;DHT22;9621;48.690;9.466;2023-06-22T11:57:54;36.20;48.60
18974;DHT22;9621;48.690;9.466;2023-06-22T12:00:21;36.00;48.50
18974;DHT22;9621;48.690;9.466;2023-06-22T12:02:51;35.80;49.00
18974;DHT22;9621;48.690;9.466;2023-06-22T12:05:19;35.50;50.10
18974;DHT22;9621;48.690;9.466;2023-06-22T12:07:47;35.20;50.30
18974;DHT22;9621;48.690;9.466;2023-06-22T12:10:14;35.00;51.30
18974;DHT22;9621;48.690;9.466;2023-06-22T12:12:41;34.90;52.00
18974;DHT22;9621;48.690;9.466;2023-06-22T12:15:09;34.90;51.80
18974;DHT22;9621;48.690;9.466;2023-06-22T12:17:37;35.00;51.50
18974;DHT22;9621;48.690;9.466;2023-06-22T12:20:07;35.30;51.50
18974;DHT22;9621;48.690;9.466;2023-06-22T12:22:34;35.60;51.40
18974;DHT22;9621;48.690;9.466;2023-06-22T12:25:03;35.90;50.90
18974;DHT22;9621;48.690;9.466;2023-06-22T12:27:30;36.10;49.00
18974;DHT22;9621;48.690;9.466;2023-06-22T12:29:57;36.30;48.90
18974;DHT22;9621;48.690;9.466;2023-06-22T12:32:24;36.20;48.10
18974;DHT22;9621;48.690;9.466;2023-06-22T12:34:52;36.10;48.50
18974;DHT22;9621;48.690;9.466;2023-06-22T12:37:20;35.90;47.70
18974;DHT22;9621;48.690;9.466;2023-06-22T12:39:47;35.70;47.60
18974;DHT22;9621;48.690;9.466;2023-06-22T12:42:14;35.50;49.30
18974;DHT22;9621;48.690;9.466;2023-06-22T12:44:41;35.30;50.00
18974;DHT22;9621;48.690;9.466;2023-06-22T12:47:09;35.20;49.80
18974;DHT22;9621;48.690;9.466;2023-06-22T12:49:36;35.00;51.20
18974;DHT22;9621;48.690;9.466;2023-06-22T12:52:09;34.80;50.70
18974;DHT22;9621;48.690;9.466;2023-06-22T12:54:38;34.60;51.30
18974;DHT22;9621;48.690;9.466;2023-06-22T12:57:05;34.40;51.70
18974;DHT22;9621;48.690;9.466;2023-06-22T12:59:32;34.20;52.30
18974;DHT22;9621;48.690;9.466;2023-06-22T13:01:59;34.00;52.90
18974;DHT22;9621;48.690;9.466;2023-06-22T13:04:26;33.80;53.50
18974;DHT22;9621;48.690;9.466;2023-06-22T13:06:53;33.70;54.10
18974;DHT22;9621;48.690;9.466;2023-06-22T13:09:20;33.60;54.50
18974;DHT22;9621;48.690;9.466;2023-06-22T13:11:49;33.60;54.70
18974;DHT22;9621;48.690;9.466;2023-06-22T13:14:15;33.50;54.50
18974;DHT22;9621;48.690;9.466;2023-06-22T13:16:42;33.50;54.90
18974;DHT22;9621;48.690;9.466;2023-06-22T13:19:09;33.40;54.50
18974;DHT22;9621;48.690;9.466;2023-06-22T13:21:36;33.40;54.80
18974;DHT22;9621;48.690;9.466;2023-06-22T13:24:04;33.30;55.10
18974;DHT22;9621;48.690;9.466;2023-06-22T13:26:32;33.30;54.50
18974;DHT22;9621;48.690;9.466;2023-06-22T13:29:01;33.40;54.50
18974;DHT22;9621;48.690;9.466;2023-06-22T13:31:28;33.40;54.50
18974;DHT22;9621;48.690;9.466;2023-06-22T13:33:55;33.50;54.10
18974;DHT22;9621;48.690;9.466;2023-06-22T13:36:22;33.60;55.00
18974;DHT22;9621;48.690;9.466;2023-06-22T13:38:49;33.70;54.00
18974;DHT22;9621;48.690;9.466;2023-06-22T13:41:16;33.90;54.40
18974;DHT22;9621;48.690;9.466;2023-06-22T13:43:43;34.10;54.50
18974;DHT22;9621;48.690;9.466;2023-06-22T13:46:12;34.40;54.70
18974;DHT22;9621;48.690;9.466;2023-06-22T13:48:38;34.60;53.60
18974;DHT22;9621;48.690;9.466;2023-06-22T13:51:05;35.00;52.50
18974;DHT22;9621;48.690;9.466;2023-06-22T13:53:32;35.20;51.30
18974;DHT22;9621;48.690;9.466;2023-06-22T13:55:59;35.30;51.70
18974;DHT22;9621;48.690;9.466;2023-06-22T13:58:26;35.30;50.10
18974;DHT22;9621;48.690;9.466;2023-06-22T14:00:53;35.30;48.60
18974;DHT22;9621;48.690;9.466;2023-06-22T14:03:22;35.10;48.50
18974;DHT22;9621;48.690;9.466;2023-06-22T14:05:48;34.90;49.90
18974;DHT22;9621;48.690;9.466;2023-06-22T14:08:15;34.60;49.30
18974;DHT22;9621;48.690;9.466;2023-06-22T14:10:42;34.50;49.80
18974;DHT22;9621;48.690;9.466;2023-06-22T14:13:09;34.40;50.00
18974;DHT22;9621;48.690;9.466;2023-06-22T14:15:36;34.30;50.20
18974;DHT22;9621;48.690;9.466;2023-06-22T14:18:04;34.10;51.00
18974;DHT22;9621;48.690;9.466;2023-06-22T14:20:32;34.20;51.30
18974;DHT22;9621;48.690;9.466;2023-06-22T14:22:59;34.20;51.00
18974;DHT22;9621;48.690;9.466;2023-06-22T14:25:26;34.20;50.50
18974;DHT22;9621;48.690;9.466;2023-06-22T14:27:53;34.20;50.50
18974;DHT22;9621;48.690;9.466;2023-06-22T14:30:20;34.30;50.30
18974;DHT22;9621;48.690;9.466;2023-06-22T14:32:47;34.20;50.70
18974;DHT22;9621;48.690;9.466;2023-06-22T14:35:14;34.20;51.10
18974;DHT22;9621;48.690;9.466;2023-06-22T14:37:42;34.10;51.70
18974;DHT22;9621;48.690;9.466;2023-06-22T14:40:09;34.10;51.80
18974;DHT22;9621;48.690;9.466;2023-06-22T14:42:36;34.20;50.90
18974;DHT22;9621;48.690;9.466;2023-06-22T14:45:04;34.40;51.50
18974;DHT22;9621;48.690;9.466;2023-06-22T14:47:31;34.70;51.10
18974;DHT22;9621;48.690;9.466;2023-06-22T14:49:58;34.90;50.30
18974;DHT22;9621;48.690;9.466;2023-06-22T14:52:25;35.00;49.90
18974;DHT22;9621;48.690;9.466;2023-06-22T14:54:54;35.10;49.70
18974;DHT22;9621;48.690;9.466;2023-06-22T14:57:21;35.10;49.20
18974;DHT22;9621;48.690;9.466;2023-06-22T14:59:49;35.00;49.30
18974;DHT22;9621;48.690;9.466;2023-06-22T15:02:16;35.00;49.30
18974;DHT22;9621;48.690;9.466;2023-06-22T15:04:43;35.00;49.20
18974;DHT22;9621;48.690;9.466;2023-06-22T15:07:10;35.10;49.20
18974;DHT22;9621;48.690;9.466;2023-06-22T15:09:37;35.30;49.50
18974;DHT22;9621;48.690;9.466;2023-06-22T15:12:09;35.40;49.30
18974;DHT22;9621;48.690;9.466;2023-06-22T15:14:37;35.60;48.60
18974;DHT22;9621;48.690;9.466;2023-06-22T15:17:05;35.60;48.20
18974;DHT22;9621;48.690;9.466;2023-06-22T15:19:34;35.60;48.50
18974;DHT22;9621;48.690;9.466;2023-06-22T15:22:01;35.60;48.40
18974;DHT22;9621;48.690;9.466;2023-06-22T15:24:28;35.60;48.40
18974;DHT22;9621;48.690;9.466;2023-06-22T15:26:55;35.50;48.40
18974;DHT22;9621;48.690;9.466;2023-06-22T15:29:23;35.40;48.10
18974;DHT22;9621;48.690;9.466;2023-06-22T15:31:51;35.40;48.40
18974;DHT22;9621;48.690;9.466;2023-06-22T15:34:18;35.40;48.10
18974;DHT22;9621;48.690;9.466;2023-06-22T15:36:45;35.30;48.20
18974;DHT22;9621;48.690;9.466;2023-06-22T15:39:12;35.10;48.10
18974;DHT22;9621;48.690;9.466;2023-06-22T15:41:39;35.00;48.80
18974;DHT22;9621;48.690;9.466;2023-06-22T15:44:07;34.80;48.90
18974;DHT22;9621;48.690;9.466;2023-06-22T15:46:35;34.60;49.60